Terminal Aerodrome Forecast
Issued by NWS

Home | Current Version | Previous Version | Text Only | Print | Product List | Glossary On
Versions: 1 2 3 4 5 6 7 8 9 10 11 12 13 14
000
FTPA31 PHFO 042332
TAFHTO
TAF
PHTO 042332Z 0500/0524 09010KT P6SM SCT030 BKN060
     FM050600 24005KT P6SM SCT025 BKN050
     FM052000 12011KT P6SM FEW030 SCT050=

USA.gov is the U.S. government's official web portal to all federal, state and local government web resources and services.